createdAt,value
2023-05-01T00:02:05.064Z,14.98
2023-05-01T00:04:33.854Z,14.95
2023-05-01T00:07:00.688Z,14.91
2023-05-01T00:09:28.006Z,14.91
2023-05-01T00:11:54.774Z,14.88
2023-05-01T00:14:21.449Z,14.88
2023-05-01T00:16:48.208Z,14.89
2023-05-01T00:19:18.512Z,14.91
2023-05-01T00:21:48.949Z,14.90
2023-05-01T00:24:17.250Z,14.86
2023-05-01T00:26:45.053Z,14.81
2023-05-01T00:29:11.762Z,14.80
2023-05-01T00:31:38.539Z,14.81
2023-05-01T00:34:05.260Z,14.82
2023-05-01T00:36:32.663Z,14.81
2023-05-01T00:38:59.396Z,14.78
2023-05-01T00:41:26.600Z,14.76
2023-05-01T00:43:53.690Z,14.75
2023-05-01T00:46:21.280Z,14.77
2023-05-01T00:48:48.248Z,14.78
2023-05-01T00:51:15.720Z,14.76
2023-05-01T00:53:43.662Z,14.76
2023-05-01T00:56:11.236Z,14.75
2023-05-01T00:58:38.747Z,14.73
2023-05-01T01:01:05.592Z,14.75
2023-05-01T01:03:32.359Z,14.77
2023-05-01T01:06:05.491Z,14.79
2023-05-01T01:08:41.190Z,14.78
2023-05-01T01:11:17.944Z,14.78
2023-05-01T01:14:08.395Z,14.74
2023-05-01T01:17:08.477Z,14.72
2023-05-01T01:19:49.380Z,14.67
2023-05-01T01:22:22.739Z,14.64
2023-05-01T01:25:06.494Z,14.64
2023-05-01T01:27:58.070Z,14.61
2023-05-01T01:30:27.848Z,14.58
2023-05-01T01:33:13.873Z,14.54
2023-05-01T01:35:47.005Z,14.53
2023-05-01T01:38:19.879Z,14.51
2023-05-01T01:40:58.524Z,14.50
2023-05-01T01:43:27.592Z,14.49
2023-05-01T01:45:59.331Z,14.49
2023-05-01T01:48:33.463Z,14.47
2023-05-01T01:51:04.990Z,14.46
2023-05-01T01:53:35.993Z,14.46
2023-05-01T01:56:06.240Z,14.46
2023-05-01T01:58:36.708Z,14.47
2023-05-01T02:01:04.398Z,14.49
2023-05-01T02:03:33.079Z,14.53
2023-05-01T02:06:01.058Z,14.58
2023-05-01T02:08:30.876Z,14.66
2023-05-01T02:11:01.713Z,14.78
2023-05-01T02:13:29.993Z,14.90
2023-05-01T02:15:59.848Z,14.98
2023-05-01T02:18:29.060Z,15.01
2023-05-01T02:20:58.697Z,15.05
2023-05-01T02:23:27.956Z,15.12
2023-05-01T02:25:57.875Z,15.15
2023-05-01T02:28:28.952Z,15.17
2023-05-01T02:30:55.913Z,15.15
2023-05-01T02:33:23.207Z,15.11
2023-05-01T02:35:49.948Z,15.08
2023-05-01T02:38:18.720Z,15.06
2023-05-01T02:40:52.232Z,15.04
2023-05-01T02:43:22.167Z,15.00
2023-05-01T02:45:51.863Z,14.98
2023-05-01T02:48:23.753Z,14.98
2023-05-01T02:50:52.236Z,14.96
2023-05-01T02:53:19.790Z,14.93
2023-05-01T02:55:50.429Z,14.87
2023-05-01T02:58:18.704Z,14.81
2023-05-01T03:00:46.182Z,14.76
2023-05-01T03:03:12.998Z,14.73
2023-05-01T03:05:41.096Z,14.74
2023-05-01T03:08:10.135Z,14.76
2023-05-01T03:10:36.877Z,14.77
2023-05-01T03:13:03.614Z,14.78
2023-05-01T03:15:30.493Z,14.78
2023-05-01T03:17:57.324Z,14.79
2023-05-01T03:20:25.305Z,14.76
2023-05-01T03:22:52.571Z,14.72
2023-05-01T03:25:19.434Z,14.70
2023-05-01T03:27:47.687Z,14.67
2023-05-01T03:30:14.921Z,14.67
2023-05-01T03:32:42.309Z,14.64
2023-05-01T03:35:16.975Z,14.64
2023-05-01T03:37:43.903Z,14.62
2023-05-01T03:40:14.621Z,14.59
2023-05-01T03:42:59.874Z,14.60
2023-05-01T03:45:26.591Z,14.60
2023-05-01T03:47:53.727Z,14.65
2023-05-01T03:50:20.719Z,14.66
2023-05-01T03:52:49.928Z,14.66
2023-05-01T03:55:16.808Z,14.65
2023-05-01T03:57:47.247Z,14.64
2023-05-01T04:00:14.303Z,14.60
2023-05-01T04:02:45.336Z,14.54
2023-05-01T04:05:17.821Z,14.50
2023-05-01T04:07:49.882Z,14.49
2023-05-01T04:10:17.517Z,14.50
2023-05-01T04:12:52.035Z,14.51
2023-05-01T04:15:18.863Z,14.48
2023-05-01T04:17:46.152Z,14.46
2023-05-01T04:20:12.964Z,14.44
2023-05-01T04:22:40.296Z,14.44
2023-05-01T04:25:10.481Z,14.41
2023-05-01T04:27:37.753Z,14.41
2023-05-01T04:30:06.270Z,14.43
2023-05-01T04:32:33.198Z,14.38
2023-05-01T04:34:59.999Z,14.41
2023-05-01T04:37:27.330Z,14.49
2023-05-01T04:39:55.728Z,14.52
2023-05-01T04:42:23.975Z,14.53
2023-05-01T04:44:50.735Z,14.53
2023-05-01T04:47:17.467Z,14.60
2023-05-01T04:49:44.713Z,14.63
2023-05-01T04:52:12.106Z,14.64
2023-05-01T04:54:49.936Z,14.66
2023-05-01T04:57:17.289Z,14.68
2023-05-01T04:59:44.080Z,14.69
2023-05-01T05:02:11.247Z,14.68
2023-05-01T05:04:37.954Z,14.68
2023-05-01T05:07:04.685Z,14.68
2023-05-01T05:09:53.479Z,14.67
2023-05-01T05:12:20.420Z,14.68
2023-05-01T05:14:48.033Z,14.70
2023-05-01T05:17:17.065Z,14.64
2023-05-01T05:19:43.744Z,14.64
2023-05-01T05:22:12.513Z,14.69
2023-05-01T05:25:04.229Z,14.71
2023-05-01T05:27:36.386Z,14.75
2023-05-01T05:30:05.958Z,14.86
2023-05-01T05:32:34.274Z,14.95
2023-05-01T05:35:01.037Z,15.07
2023-05-01T05:37:28.291Z,15.20
2023-05-01T05:39:57.065Z,15.28
2023-05-01T05:42:24.224Z,15.37
2023-05-01T05:44:51.164Z,15.44
2023-05-01T05:47:17.966Z,15.43
2023-05-01T05:49:44.703Z,15.42
2023-05-01T05:52:11.462Z,15.45
2023-05-01T05:54:38.988Z,15.50
2023-05-01T05:57:05.666Z,15.59
2023-05-01T05:59:33.192Z,15.67
2023-05-01T06:02:00.335Z,15.79
2023-05-01T06:04:27.069Z,15.92
2023-05-01T06:06:54.845Z,16.01
2023-05-01T06:09:21.710Z,16.09
2023-05-01T06:11:48.400Z,16.22
2023-05-01T06:14:16.701Z,16.36
2023-05-01T06:16:44.175Z,16.43
2023-05-01T06:19:12.215Z,16.51
2023-05-01T06:21:39.864Z,16.51
2023-05-01T06:24:06.773Z,16.56
2023-05-01T06:26:41.973Z,16.64
2023-05-01T06:29:08.656Z,16.84
2023-05-01T06:31:36.012Z,17.01
2023-05-01T06:34:08.751Z,17.15
2023-05-01T06:36:49.678Z,17.23
2023-05-01T06:39:16.552Z,17.36
2023-05-01T06:41:46.520Z,17.40
2023-05-01T06:44:14.619Z,17.45
2023-05-01T06:46:41.406Z,17.39
2023-05-01T06:49:08.180Z,17.21
2023-05-01T06:51:34.972Z,17.03
2023-05-01T06:54:02.214Z,16.96
2023-05-01T06:56:28.929Z,17.01
2023-05-01T06:58:55.690Z,17.18
2023-05-01T07:01:22.487Z,17.42
2023-05-01T07:03:49.391Z,17.55
2023-05-01T07:06:16.166Z,17.67
2023-05-01T07:08:42.976Z,17.77
2023-05-01T07:11:09.758Z,17.87
2023-05-01T07:13:36.544Z,17.99
2023-05-01T07:16:03.533Z,18.04
2023-05-01T07:18:30.414Z,18.13
2023-05-01T07:20:57.048Z,18.27
2023-05-01T07:23:25.478Z,18.36
2023-05-01T07:25:52.804Z,18.42
2023-05-01T07:28:24.914Z,18.44
2023-05-01T07:30:51.734Z,18.46
2023-05-01T07:33:18.630Z,18.50
2023-05-01T07:35:45.479Z,18.50
2023-05-01T07:38:13.453Z,18.54
2023-05-01T07:40:40.317Z,18.61
2023-05-01T07:43:07.419Z,18.68
2023-05-01T07:45:34.753Z,18.69
2023-05-01T07:48:01.495Z,18.76
2023-05-01T07:50:28.834Z,18.84
2023-05-01T07:52:56.047Z,18.99
2023-05-01T07:55:23.349Z,19.15
2023-05-01T07:57:50.620Z,19.27
2023-05-01T08:00:17.779Z,19.35
2023-05-01T08:02:44.526Z,19.49
2023-05-01T08:05:11.285Z,19.58
2023-05-01T08:07:38.056Z,19.70
2023-05-01T08:10:05.470Z,19.87
2023-05-01T08:12:32.409Z,20.10
2023-05-01T08:14:59.155Z,20.24
2023-05-01T08:17:25.982Z,20.37
2023-05-01T08:19:56.649Z,20.59
2023-05-01T08:22:24.220Z,20.85
2023-05-01T08:24:51.353Z,21.11
2023-05-01T08:27:18.498Z,21.34
2023-05-01T08:29:45.584Z,21.50
2023-05-01T08:32:12.313Z,21.68
2023-05-01T08:34:39.110Z,21.89
2023-05-01T08:37:05.923Z,22.02
2023-05-01T08:39:32.797Z,22.29
2023-05-01T08:41:59.585Z,22.63
2023-05-01T08:44:26.880Z,23.12
2023-05-01T08:47:16.247Z,23.92
2023-05-01T08:49:43.960Z,24.25
2023-05-01T08:52:15.852Z,24.29
2023-05-01T08:54:44.545Z,24.18
2023-05-01T08:57:13.094Z,24.26
2023-05-01T08:59:40.845Z,24.62
2023-05-01T09:02:09.985Z,24.87
2023-05-01T09:04:41.414Z,25.23
2023-05-01T09:07:09.810Z,25.42
2023-05-01T09:09:37.349Z,25.35
2023-05-01T09:12:25.564Z,25.67
2023-05-01T09:14:54.266Z,25.46
2023-05-01T09:17:22.474Z,24.87
2023-05-01T09:19:50.824Z,24.50
2023-05-01T09:22:19.227Z,24.38
2023-05-01T09:24:46.997Z,25.70
2023-05-01T09:27:14.721Z,29.51
2023-05-01T09:29:47.963Z,32.90
2023-05-01T09:32:18.063Z,35.83
2023-05-01T09:34:45.131Z,38.47
2023-05-01T09:37:29.130Z,40.39
2023-05-01T09:40:06.843Z,42.14
2023-05-01T09:42:35.904Z,42.52
2023-05-01T09:45:05.330Z,40.97
2023-05-01T09:47:34.105Z,41.66
2023-05-01T09:50:00.810Z,40.92
2023-05-01T09:52:29.184Z,40.01
2023-05-01T09:55:16.430Z,40.11
2023-05-01T09:57:45.261Z,41.21
2023-05-01T10:00:16.118Z,41.84
2023-05-01T10:02:47.775Z,41.73
2023-05-01T10:05:15.812Z,41.75
2023-05-01T10:08:03.786Z,43.47
2023-05-01T10:10:30.847Z,43.05
2023-05-01T10:13:13.644Z,41.96
2023-05-01T10:15:40.806Z,41.07
2023-05-01T10:18:09.952Z,39.47
2023-05-01T10:20:36.657Z,40.97
2023-05-01T10:23:03.664Z,42.96
2023-05-01T10:25:31.963Z,44.40
2023-05-01T10:27:59.407Z,45.49
2023-05-01T10:30:26.814Z,46.15
2023-05-01T10:32:53.676Z,46.18
2023-05-01T10:35:26.183Z,45.70
2023-05-01T10:38:02.336Z,45.89
2023-05-01T10:40:41.523Z,45.93
2023-05-01T10:43:28.931Z,46.06
2023-05-01T10:46:08.000Z,45.72
2023-05-01T10:48:37.828Z,45.32
2023-05-01T10:51:19.064Z,45.97
2023-05-01T10:53:47.360Z,45.52
2023-05-01T10:56:27.147Z,46.81
2023-05-01T10:58:53.822Z,45.77
2023-05-01T11:01:30.914Z,43.32
2023-05-01T11:04:05.333Z,40.44
2023-05-01T11:06:32.466Z,38.30
2023-05-01T11:09:00.377Z,39.07
2023-05-01T11:11:27.200Z,41.82
2023-05-01T11:14:11.489Z,44.47
2023-05-01T11:16:39.009Z,46.93
2023-05-01T11:19:34.253Z,48.58
2023-05-01T11:22:01.677Z,47.29
2023-05-01T11:24:32.956Z,44.68
2023-05-01T11:27:02.447Z,43.66
2023-05-01T11:29:35.108Z,43.54
2023-05-01T11:32:02.227Z,42.86
2023-05-01T11:34:37.772Z,42.61
2023-05-01T11:37:04.567Z,43.28
2023-05-01T11:39:31.446Z,42.41
2023-05-01T11:42:09.442Z,43.71
2023-05-01T11:44:37.585Z,43.77
2023-05-01T11:47:07.302Z,42.92
2023-05-01T11:49:34.279Z,41.34
2023-05-01T11:52:01.144Z,39.84
2023-05-01T11:54:28.143Z,37.67
2023-05-01T11:57:01.153Z,36.57
2023-05-01T11:59:28.278Z,35.41
2023-05-01T12:01:55.327Z,34.52
2023-05-01T12:04:31.706Z,33.08
2023-05-01T12:06:59.365Z,32.20
2023-05-01T12:09:27.427Z,31.62
2023-05-01T12:11:54.618Z,30.75
2023-05-01T12:14:22.349Z,30.30
2023-05-01T12:16:49.605Z,30.13
2023-05-01T12:19:17.555Z,30.05
2023-05-01T12:21:44.397Z,29.83
2023-05-01T12:24:17.039Z,30.08
2023-05-01T12:26:47.664Z,30.01
2023-05-01T12:29:14.389Z,29.62
2023-05-01T12:31:49.285Z,29.17
2023-05-01T12:34:16.185Z,28.99
2023-05-01T12:36:54.066Z,28.94
2023-05-01T12:39:23.375Z,28.99
2023-05-01T12:41:50.089Z,29.11
2023-05-01T12:44:23.724Z,29.17
2023-05-01T12:47:02.020Z,29.18
2023-05-01T12:49:31.125Z,28.88
2023-05-01T12:52:00.294Z,28.92
2023-05-01T12:54:31.888Z,28.91
2023-05-01T12:57:09.024Z,28.71
2023-05-01T12:59:37.277Z,28.48
2023-05-01T13:02:12.835Z,28.34
2023-05-01T13:04:40.170Z,28.37
2023-05-01T13:07:17.474Z,28.10
2023-05-01T13:10:00.149Z,27.61
2023-05-01T13:12:28.545Z,27.96
2023-05-01T13:14:57.294Z,28.33
2023-05-01T13:17:24.605Z,28.54
2023-05-01T13:19:59.879Z,28.42
2023-05-01T13:22:34.042Z,28.35
2023-05-01T13:25:03.141Z,28.37
2023-05-01T13:27:30.274Z,28.36
2023-05-01T13:29:59.148Z,28.26
2023-05-01T13:32:26.544Z,28.08
2023-05-01T13:34:54.273Z,27.99
2023-05-01T13:37:23.906Z,27.91
2023-05-01T13:39:50.686Z,27.82
2023-05-01T13:42:26.393Z,27.68
2023-05-01T13:44:55.029Z,27.65
2023-05-01T13:47:26.471Z,27.47
2023-05-01T13:49:53.218Z,26.99
2023-05-01T13:52:20.711Z,26.88
2023-05-01T13:54:48.654Z,26.89
2023-05-01T13:57:18.581Z,26.67
2023-05-01T13:59:46.779Z,26.49
2023-05-01T14:02:25.014Z,26.42
2023-05-01T14:04:51.945Z,26.31
2023-05-01T14:07:20.722Z,26.24
2023-05-01T14:09:54.573Z,25.90
2023-05-01T14:12:26.316Z,25.51
2023-05-01T14:14:53.638Z,25.18
2023-05-01T14:17:26.089Z,25.02
2023-05-01T14:19:53.069Z,24.85
2023-05-01T14:22:19.917Z,24.53
2023-05-01T14:24:46.510Z,24.18
2023-05-01T14:27:14.748Z,24.09
2023-05-01T14:29:44.475Z,24.49
2023-05-01T14:32:11.593Z,24.86
2023-05-01T14:34:42.164Z,24.87
2023-05-01T14:37:15.072Z,24.81
2023-05-01T14:39:41.929Z,24.37
2023-05-01T14:42:08.632Z,24.09
2023-05-01T14:44:40.199Z,24.29
2023-05-01T14:47:09.535Z,24.67
2023-05-01T14:49:36.207Z,24.94
2023-05-01T14:52:03.169Z,25.05
2023-05-01T14:54:35.752Z,25.03
2023-05-01T14:57:06.275Z,24.79
2023-05-01T14:59:33.020Z,24.43
2023-05-01T15:01:59.667Z,24.23
2023-05-01T15:04:26.511Z,24.18
2023-05-01T15:06:53.976Z,24.12
2023-05-01T15:09:20.776Z,23.94
2023-05-01T15:11:47.474Z,23.75
2023-05-01T15:14:14.235Z,23.55
2023-05-01T15:16:41.177Z,23.39
2023-05-01T15:19:07.962Z,23.32
2023-05-01T15:21:34.562Z,23.41
2023-05-01T15:24:01.278Z,23.43
2023-05-01T15:26:27.906Z,23.60
2023-05-01T15:28:54.704Z,23.75
2023-05-01T15:31:21.361Z,23.99
2023-05-01T15:33:48.032Z,24.30
2023-05-01T15:36:15.050Z,24.64
2023-05-01T15:38:41.827Z,24.83
2023-05-01T15:41:08.494Z,24.84
2023-05-01T15:43:35.161Z,24.73
2023-05-01T15:46:02.082Z,24.37
2023-05-01T15:48:28.795Z,24.02
2023-05-01T15:50:55.634Z,23.91
2023-05-01T15:53:23.063Z,23.93
2023-05-01T15:55:49.952Z,23.94
2023-05-01T15:58:17.021Z,23.78
2023-05-01T16:00:47.142Z,23.59
2023-05-01T16:03:15.347Z,23.43
2023-05-01T16:05:45.843Z,23.30
2023-05-01T16:08:12.921Z,22.99
2023-05-01T16:10:40.628Z,22.67
2023-05-01T16:13:07.576Z,22.34
2023-05-01T16:15:36.191Z,22.09
2023-05-01T16:18:06.488Z,21.95
2023-05-01T16:20:35.210Z,21.93
2023-05-01T16:23:02.193Z,21.85
2023-05-01T16:25:29.017Z,21.80
2023-05-01T16:27:55.911Z,21.82
2023-05-01T16:30:24.621Z,21.84
2023-05-01T16:32:51.397Z,21.88
2023-05-01T16:35:20.935Z,21.87
2023-05-01T16:37:47.576Z,21.96
2023-05-01T16:40:18.076Z,22.14
2023-05-01T16:42:52.178Z,22.21
2023-05-01T16:45:19.524Z,22.10
2023-05-01T16:47:46.317Z,22.04
2023-05-01T16:50:13.972Z,22.02
2023-05-01T16:52:40.915Z,21.96
2023-05-01T16:55:07.965Z,21.93
2023-05-01T16:57:34.617Z,21.91
2023-05-01T17:00:01.682Z,21.88
2023-05-01T17:02:28.799Z,21.83
2023-05-01T17:04:55.584Z,21.75
2023-05-01T17:07:23.920Z,21.64
2023-05-01T17:09:51.057Z,21.52
2023-05-01T17:12:17.826Z,21.44
2023-05-01T17:14:44.693Z,21.31
2023-05-01T17:17:11.653Z,21.26
2023-05-01T17:19:41.545Z,21.23
2023-05-01T17:22:08.280Z,21.22
2023-05-01T17:24:35.915Z,21.23
2023-05-01T17:27:03.618Z,21.19
2023-05-01T17:29:30.391Z,21.10
2023-05-01T17:31:57.131Z,20.99
2023-05-01T17:34:23.880Z,20.90
2023-05-01T17:36:50.684Z,20.84
2023-05-01T17:39:17.623Z,20.78
2023-05-01T17:41:44.412Z,20.68
2023-05-01T17:44:11.278Z,20.60
2023-05-01T17:46:39.007Z,20.47
2023-05-01T17:49:06.217Z,20.29
2023-05-01T17:51:33.938Z,20.16
2023-05-01T17:54:01.067Z,20.03
2023-05-01T17:56:28.267Z,19.90
2023-05-01T17:58:55.179Z,19.79
2023-05-01T18:01:22.370Z,19.64
2023-05-01T18:03:49.596Z,19.48
2023-05-01T18:06:16.872Z,19.34
2023-05-01T18:08:43.669Z,19.22
2023-05-01T18:11:10.290Z,19.13
2023-05-01T18:13:42.461Z,19.01
2023-05-01T18:16:11.249Z,18.92
2023-05-01T18:18:38.060Z,18.88
2023-05-01T18:21:04.949Z,18.89
2023-05-01T18:23:31.580Z,18.95
2023-05-01T18:25:58.558Z,19.02
2023-05-01T18:28:25.397Z,19.12
2023-05-01T18:30:52.331Z,19.20
2023-05-01T18:33:19.091Z,19.23
2023-05-01T18:35:45.804Z,19.27
2023-05-01T18:38:12.627Z,19.30
2023-05-01T18:40:39.569Z,19.32
2023-05-01T18:43:06.207Z,19.34
2023-05-01T18:45:33.108Z,19.36
2023-05-01T18:48:00.674Z,19.23
2023-05-01T18:50:27.537Z,19.08
2023-05-01T18:52:54.306Z,19.03
2023-05-01T18:55:20.973Z,19.00
2023-05-01T18:57:48.430Z,18.94
2023-05-01T19:00:16.640Z,18.88
2023-05-01T19:02:46.527Z,18.77
2023-05-01T19:05:14.034Z,18.65
2023-05-01T19:07:41.066Z,18.59
2023-05-01T19:10:08.177Z,18.55
2023-05-01T19:12:35.099Z,18.50
2023-05-01T19:15:01.986Z,18.42
2023-05-01T19:17:28.686Z,18.34
2023-05-01T19:19:55.479Z,18.23
2023-05-01T19:22:22.141Z,18.04
2023-05-01T19:24:48.852Z,17.87
2023-05-01T19:27:15.722Z,17.75
2023-05-01T19:29:42.441Z,17.67
2023-05-01T19:32:09.193Z,17.65
2023-05-01T19:34:36.130Z,17.67
2023-05-01T19:37:03.364Z,17.66
2023-05-01T19:39:30.121Z,17.69
2023-05-01T19:41:56.766Z,17.66
2023-05-01T19:44:23.493Z,17.67
2023-05-01T19:46:50.115Z,17.70
2023-05-01T19:49:16.787Z,17.67
2023-05-01T19:51:45.521Z,17.61
2023-05-01T19:54:12.358Z,17.54
2023-05-01T19:56:39.429Z,17.47
2023-05-01T19:59:06.107Z,17.45
2023-05-01T20:01:33.546Z,17.36
2023-05-01T20:04:00.483Z,17.33
2023-05-01T20:06:27.761Z,17.36
2023-05-01T20:08:54.471Z,17.36
2023-05-01T20:11:21.138Z,17.30
2023-05-01T20:13:48.895Z,17.21
2023-05-01T20:16:15.697Z,17.09
2023-05-01T20:18:42.418Z,16.95
2023-05-01T20:21:09.179Z,16.85
2023-05-01T20:23:35.986Z,16.79
2023-05-01T20:26:03.072Z,16.71
2023-05-01T20:28:29.961Z,16.68
2023-05-01T20:30:56.927Z,16.67
2023-05-01T20:33:23.751Z,16.65
2023-05-01T20:35:51.434Z,16.69
2023-05-01T20:38:18.213Z,16.70
2023-05-01T20:40:45.025Z,16.73
2023-05-01T20:43:11.733Z,16.74
2023-05-01T20:45:39.429Z,16.75
2023-05-01T20:48:06.301Z,16.82
2023-05-01T20:50:32.976Z,16.90
2023-05-01T20:52:59.698Z,16.94
2023-05-01T20:55:28.016Z,16.99
2023-05-01T20:57:54.629Z,17.00
2023-05-01T21:00:21.332Z,17.03
2023-05-01T21:02:48.041Z,17.03
2023-05-01T21:05:16.307Z,17.04
2023-05-01T21:07:43.024Z,17.07
2023-05-01T21:10:10.856Z,17.13
2023-05-01T21:12:38.457Z,17.15
2023-05-01T21:15:05.591Z,17.21
2023-05-01T21:17:33.483Z,17.24
2023-05-01T21:20:01.649Z,17.31
2023-05-01T21:22:28.508Z,17.32
2023-05-01T21:25:00.002Z,17.33
2023-05-01T21:27:27.440Z,17.33
2023-05-01T21:30:05.376Z,17.31
2023-05-01T21:32:33.935Z,17.34
2023-05-01T21:35:01.086Z,17.34
2023-05-01T21:37:29.357Z,17.34
2023-05-01T21:39:59.068Z,17.35
2023-05-01T21:42:31.404Z,17.34
2023-05-01T21:45:06.568Z,17.34
2023-05-01T21:47:47.059Z,17.28
2023-05-01T21:50:22.876Z,17.21
2023-05-01T21:52:52.482Z,17.24
2023-05-01T21:55:23.054Z,17.25
2023-05-01T21:57:55.805Z,17.28
2023-05-01T22:00:28.242Z,17.29
2023-05-01T22:02:59.419Z,17.28
2023-05-01T22:05:31.015Z,17.30
2023-05-01T22:07:58.208Z,17.30
2023-05-01T22:10:27.172Z,17.25
2023-05-01T22:12:56.550Z,17.19
2023-05-01T22:15:23.190Z,17.18
2023-05-01T22:17:50.089Z,17.11
2023-05-01T22:20:16.770Z,17.08
2023-05-01T22:22:43.410Z,17.07
2023-05-01T22:25:11.455Z,17.04
2023-05-01T22:27:38.449Z,16.98
2023-05-01T22:30:05.776Z,16.95
2023-05-01T22:32:32.645Z,16.95
2023-05-01T22:34:59.541Z,16.97
2023-05-01T22:37:26.326Z,16.92
2023-05-01T22:39:53.984Z,16.92
2023-05-01T22:42:21.315Z,16.97
2023-05-01T22:44:48.508Z,17.03
2023-05-01T22:47:15.274Z,17.07
2023-05-01T22:49:42.550Z,17.11
2023-05-01T22:52:09.306Z,17.14
2023-05-01T22:54:36.049Z,17.19
2023-05-01T22:57:02.777Z,17.23
2023-05-01T22:59:29.484Z,17.25
2023-05-01T23:01:56.571Z,17.27
2023-05-01T23:04:25.433Z,17.24
2023-05-01T23:06:52.210Z,17.22
2023-05-01T23:09:18.969Z,17.21
2023-05-01T23:11:50.854Z,17.21
2023-05-01T23:14:18.205Z,17.18
2023-05-01T23:16:44.802Z,17.14
2023-05-01T23:19:24.960Z,17.12
2023-05-01T23:22:06.275Z,17.04
2023-05-01T23:24:41.961Z,16.96
2023-05-01T23:27:08.945Z,16.94
2023-05-01T23:29:35.722Z,16.91
2023-05-01T23:32:02.647Z,16.86
2023-05-01T23:34:29.377Z,16.85
2023-05-01T23:36:56.085Z,16.89
2023-05-01T23:39:22.724Z,16.90
2023-05-01T23:41:50.520Z,16.86
2023-05-01T23:44:17.369Z,16.79
2023-05-01T23:46:44.293Z,16.72
2023-05-01T23:49:11.428Z,16.65
2023-05-01T23:51:38.385Z,16.61
2023-05-01T23:54:05.105Z,16.53
2023-05-01T23:56:32.944Z,16.40
2023-05-01T23:58:59.684Z,16.35
